sensor_id;sensor_type;location;lat;lon;timestamp;P1;durP1;ratioP1;P2;durP2;ratioP2
66353;SDS011;53150;48.296;16.452;2022-10-16T00:00:31;40.78;;;27.17;;
66353;SDS011;53150;48.296;16.452;2022-10-16T00:02:57;41.13;;;28.30;;
66353;SDS011;53150;48.296;16.452;2022-10-16T00:05:23;38.65;;;27.42;;
66353;SDS011;53150;48.296;16.452;2022-10-16T00:07:49;41.08;;;27.88;;
66353;SDS011;53150;48.296;16.452;2022-10-16T00:10:15;45.80;;;30.02;;
66353;SDS011;53150;48.296;16.452;2022-10-16T00:12:41;39.17;;;27.48;;
66353;SDS011;53150;48.296;16.452;2022-10-16T00:15:07;36.33;;;26.08;;
66353;SDS011;53150;48.296;16.452;2022-10-16T00:23:06;38.67;;;25.92;;
66353;SDS011;53150;48.296;16.452;2022-10-16T00:25:33;38.85;;;26.30;;
66353;SDS011;53150;48.296;16.452;2022-10-16T00:28:06;34.25;;;24.23;;
66353;SDS011;53150;48.296;16.452;2022-10-16T00:30:36;38.58;;;25.55;;
66353;SDS011;53150;48.296;16.452;2022-10-16T00:33:11;35.47;;;25.50;;
66353;SDS011;53150;48.296;16.452;2022-10-16T00:39:13;35.17;;;24.40;;
66353;SDS011;53150;48.296;16.452;2022-10-16T00:41:44;36.00;;;25.63;;
66353;SDS011;53150;48.296;16.452;2022-10-16T00:46:54;34.50;;;24.25;;
66353;SDS011;53150;48.296;16.452;2022-10-16T00:49:20;37.40;;;25.20;;
66353;SDS011;53150;48.296;16.452;2022-10-16T00:51:47;36.95;;;26.58;;
66353;SDS011;53150;48.296;16.452;2022-10-16T00:56:46;38.05;;;26.25;;
66353;SDS011;53150;48.296;16.452;2022-10-16T01:01:58;43.22;;;27.25;;
66353;SDS011;53150;48.296;16.452;2022-10-16T01:04:24;44.42;;;27.50;;
66353;SDS011;53150;48.296;16.452;2022-10-16T01:06:54;39.55;;;27.48;;
66353;SDS011;53150;48.296;16.452;2022-10-16T01:14:22;39.65;;;26.65;;
66353;SDS011;53150;48.296;16.452;2022-10-16T01:17:09;50.20;;;29.02;;
66353;SDS011;53150;48.296;16.452;2022-10-16T01:22:22;42.30;;;27.80;;
66353;SDS011;53150;48.296;16.452;2022-10-16T01:24:52;39.28;;;27.70;;
66353;SDS011;53150;48.296;16.452;2022-10-16T01:30:07;43.22;;;26.73;;
66353;SDS011;53150;48.296;16.452;2022-10-16T01:32:42;42.45;;;28.13;;
66353;SDS011;53150;48.296;16.452;2022-10-16T01:35:17;39.88;;;26.95;;
66353;SDS011;53150;48.296;16.452;2022-10-16T01:40:14;34.75;;;25.17;;
66353;SDS011;53150;48.296;16.452;2022-10-16T01:42:42;34.05;;;23.85;;
66353;SDS011;53150;48.296;16.452;2022-10-16T01:45:11;31.10;;;23.50;;
66353;SDS011;53150;48.296;16.452;2022-10-16T01:47:38;29.02;;;22.35;;
66353;SDS011;53150;48.296;16.452;2022-10-16T01:50:05;29.55;;;21.42;;
66353;SDS011;53150;48.296;16.452;2022-10-16T01:52:32;31.10;;;22.73;;
66353;SDS011;53150;48.296;16.452;2022-10-16T01:55:00;32.45;;;22.85;;
66353;SDS011;53150;48.296;16.452;2022-10-16T01:57:26;31.77;;;22.60;;
66353;SDS011;53150;48.296;16.452;2022-10-16T01:59:54;30.80;;;22.15;;
66353;SDS011;53150;48.296;16.452;2022-10-16T02:02:21;32.47;;;22.73;;
66353;SDS011;53150;48.296;16.452;2022-10-16T02:04:53;30.85;;;23.80;;
66353;SDS011;53150;48.296;16.452;2022-10-16T02:07:19;35.40;;;24.77;;
66353;SDS011;53150;48.296;16.452;2022-10-16T02:09:45;37.25;;;24.48;;
66353;SDS011;53150;48.296;16.452;2022-10-16T02:12:25;34.55;;;23.77;;
66353;SDS011;53150;48.296;16.452;2022-10-16T02:14:52;33.47;;;23.13;;
66353;SDS011;53150;48.296;16.452;2022-10-16T02:17:18;35.67;;;24.85;;
66353;SDS011;53150;48.296;16.452;2022-10-16T02:19:44;36.38;;;25.05;;
66353;SDS011;53150;48.296;16.452;2022-10-16T02:22:16;49.90;;;26.75;;
66353;SDS011;53150;48.296;16.452;2022-10-16T02:25:04;33.85;;;24.38;;
66353;SDS011;53150;48.296;16.452;2022-10-16T02:30:32;35.03;;;24.50;;
66353;SDS011;53150;48.296;16.452;2022-10-16T02:33:00;37.65;;;25.45;;
66353;SDS011;53150;48.296;16.452;2022-10-16T02:35:26;35.92;;;25.27;;
66353;SDS011;53150;48.296;16.452;2022-10-16T02:37:53;35.78;;;26.30;;
66353;SDS011;53150;48.296;16.452;2022-10-16T02:40:20;37.22;;;24.95;;
66353;SDS011;53150;48.296;16.452;2022-10-16T02:42:49;39.30;;;25.95;;
66353;SDS011;53150;48.296;16.452;2022-10-16T02:45:15;35.63;;;24.38;;
66353;SDS011;53150;48.296;16.452;2022-10-16T02:47:42;36.08;;;25.17;;
66353;SDS011;53150;48.296;16.452;2022-10-16T02:50:08;34.90;;;24.70;;
66353;SDS011;53150;48.296;16.452;2022-10-16T02:52:34;34.63;;;25.05;;
66353;SDS011;53150;48.296;16.452;2022-10-16T02:55:00;31.85;;;22.88;;
66353;SDS011;53150;48.296;16.452;2022-10-16T02:57:26;29.85;;;22.83;;
66353;SDS011;53150;48.296;16.452;2022-10-16T02:59:52;33.88;;;23.75;;
66353;SDS011;53150;48.296;16.452;2022-10-16T03:02:18;30.38;;;22.33;;
66353;SDS011;53150;48.296;16.452;2022-10-16T03:04:44;34.78;;;26.15;;
66353;SDS011;53150;48.296;16.452;2022-10-16T03:07:10;30.25;;;23.17;;
66353;SDS011;53150;48.296;16.452;2022-10-16T03:09:36;31.17;;;23.85;;
66353;SDS011;53150;48.296;16.452;2022-10-16T03:12:03;34.78;;;25.23;;
66353;SDS011;53150;48.296;16.452;2022-10-16T03:14:29;30.90;;;22.80;;
66353;SDS011;53150;48.296;16.452;2022-10-16T03:16:55;32.10;;;23.02;;
66353;SDS011;53150;48.296;16.452;2022-10-16T03:19:21;32.60;;;24.48;;
66353;SDS011;53150;48.296;16.452;2022-10-16T03:21:47;31.50;;;22.60;;
66353;SDS011;53150;48.296;16.452;2022-10-16T03:24:13;37.85;;;25.85;;
66353;SDS011;53150;48.296;16.452;2022-10-16T03:26:39;34.80;;;25.63;;
66353;SDS011;53150;48.296;16.452;2022-10-16T03:29:05;32.22;;;23.77;;
66353;SDS011;53150;48.296;16.452;2022-10-16T03:31:31;35.00;;;24.58;;
66353;SDS011;53150;48.296;16.452;2022-10-16T03:33:57;37.03;;;25.73;;
66353;SDS011;53150;48.296;16.452;2022-10-16T03:36:23;38.28;;;26.35;;
66353;SDS011;53150;48.296;16.452;2022-10-16T03:38:49;36.00;;;24.95;;
66353;SDS011;53150;48.296;16.452;2022-10-16T03:41:15;35.38;;;26.00;;
66353;SDS011;53150;48.296;16.452;2022-10-16T03:43:41;36.25;;;25.15;;
66353;SDS011;53150;48.296;16.452;2022-10-16T03:46:07;34.83;;;24.55;;
66353;SDS011;53150;48.296;16.452;2022-10-16T03:48:33;35.90;;;26.13;;
66353;SDS011;53150;48.296;16.452;2022-10-16T03:50:59;33.55;;;23.75;;
66353;SDS011;53150;48.296;16.452;2022-10-16T03:53:25;37.22;;;25.83;;
66353;SDS011;53150;48.296;16.452;2022-10-16T03:55:51;38.53;;;27.77;;
66353;SDS011;53150;48.296;16.452;2022-10-16T03:58:17;36.72;;;25.08;;
66353;SDS011;53150;48.296;16.452;2022-10-16T04:00:45;36.08;;;24.90;;
66353;SDS011;53150;48.296;16.452;2022-10-16T04:03:12;39.40;;;25.80;;
66353;SDS011;53150;48.296;16.452;2022-10-16T04:05:38;34.25;;;24.85;;
66353;SDS011;53150;48.296;16.452;2022-10-16T04:08:04;36.13;;;24.23;;
66353;SDS011;53150;48.296;16.452;2022-10-16T04:10:30;35.97;;;25.75;;
66353;SDS011;53150;48.296;16.452;2022-10-16T04:12:56;34.35;;;24.95;;
66353;SDS011;53150;48.296;16.452;2022-10-16T04:15:23;34.60;;;24.90;;
66353;SDS011;53150;48.296;16.452;2022-10-16T04:17:49;34.80;;;24.80;;
66353;SDS011;53150;48.296;16.452;2022-10-16T04:20:15;32.92;;;22.98;;
66353;SDS011;53150;48.296;16.452;2022-10-16T04:22:41;29.77;;;22.75;;
66353;SDS011;53150;48.296;16.452;2022-10-16T04:25:07;29.10;;;22.23;;
66353;SDS011;53150;48.296;16.452;2022-10-16T04:27:33;27.35;;;19.95;;
66353;SDS011;53150;48.296;16.452;2022-10-16T04:29:59;28.73;;;20.73;;
66353;SDS011;53150;48.296;16.452;2022-10-16T04:32:26;28.13;;;20.40;;
66353;SDS011;53150;48.296;16.452;2022-10-16T04:34:52;35.42;;;23.33;;
66353;SDS011;53150;48.296;16.452;2022-10-16T04:37:18;29.38;;;22.20;;
66353;SDS011;53150;48.296;16.452;2022-10-16T04:39:44;28.35;;;21.65;;
66353;SDS011;53150;48.296;16.452;2022-10-16T04:42:11;35.53;;;23.00;;
66353;SDS011;53150;48.296;16.452;2022-10-16T04:44:37;32.20;;;22.25;;
66353;SDS011;53150;48.296;16.452;2022-10-16T04:47:03;32.25;;;22.27;;
66353;SDS011;53150;48.296;16.452;2022-10-16T04:49:29;30.35;;;23.20;;
66353;SDS011;53150;48.296;16.452;2022-10-16T04:51:55;34.35;;;22.83;;
66353;SDS011;53150;48.296;16.452;2022-10-16T04:54:21;30.45;;;21.45;;
66353;SDS011;53150;48.296;16.452;2022-10-16T04:56:47;30.88;;;21.77;;
66353;SDS011;53150;48.296;16.452;2022-10-16T04:59:15;29.70;;;22.65;;
66353;SDS011;53150;48.296;16.452;2022-10-16T05:01:42;34.60;;;23.88;;
66353;SDS011;53150;48.296;16.452;2022-10-16T05:04:08;33.97;;;23.45;;
66353;SDS011;53150;48.296;16.452;2022-10-16T05:06:34;33.05;;;24.05;;
66353;SDS011;53150;48.296;16.452;2022-10-16T05:09:00;35.08;;;24.45;;
66353;SDS011;53150;48.296;16.452;2022-10-16T05:11:26;35.03;;;24.08;;
66353;SDS011;53150;48.296;16.452;2022-10-16T05:13:52;34.72;;;24.83;;
66353;SDS011;53150;48.296;16.452;2022-10-16T05:16:18;35.08;;;25.15;;
66353;SDS011;53150;48.296;16.452;2022-10-16T05:18:44;43.40;;;26.15;;
66353;SDS011;53150;48.296;16.452;2022-10-16T05:21:10;38.45;;;26.38;;
66353;SDS011;53150;48.296;16.452;2022-10-16T05:23:36;38.90;;;26.13;;
66353;SDS011;53150;48.296;16.452;2022-10-16T05:26:02;37.25;;;26.35;;
66353;SDS011;53150;48.296;16.452;2022-10-16T05:28:29;40.85;;;28.27;;
66353;SDS011;53150;48.296;16.452;2022-10-16T05:30:55;40.42;;;28.10;;
66353;SDS011;53150;48.296;16.452;2022-10-16T05:33:22;39.25;;;27.23;;
66353;SDS011;53150;48.296;16.452;2022-10-16T05:35:49;36.05;;;27.05;;
66353;SDS011;53150;48.296;16.452;2022-10-16T05:38:15;36.40;;;26.33;;
66353;SDS011;53150;48.296;16.452;2022-10-16T05:40:41;46.38;;;31.10;;
66353;SDS011;53150;48.296;16.452;2022-10-16T05:43:07;45.50;;;30.65;;
66353;SDS011;53150;48.296;16.452;2022-10-16T05:45:34;43.90;;;30.73;;
66353;SDS011;53150;48.296;16.452;2022-10-16T05:48:00;57.53;;;34.92;;
66353;SDS011;53150;48.296;16.452;2022-10-16T05:50:26;63.72;;;37.83;;
66353;SDS011;53150;48.296;16.452;2022-10-16T05:52:52;74.50;;;40.03;;
66353;SDS011;53150;48.296;16.452;2022-10-16T05:55:18;81.05;;;43.92;;
66353;SDS011;53150;48.296;16.452;2022-10-16T05:57:44;83.00;;;43.47;;
66353;SDS011;53150;48.296;16.452;2022-10-16T06:00:10;90.75;;;47.00;;
66353;SDS011;53150;48.296;16.452;2022-10-16T06:02:36;96.90;;;46.45;;
66353;SDS011;53150;48.296;16.452;2022-10-16T06:05:03;93.22;;;47.85;;
66353;SDS011;53150;48.296;16.452;2022-10-16T06:07:29;94.30;;;49.08;;
66353;SDS011;53150;48.296;16.452;2022-10-16T06:09:55;105.18;;;51.92;;
66353;SDS011;53150;48.296;16.452;2022-10-16T06:12:21;104.45;;;55.63;;
66353;SDS011;53150;48.296;16.452;2022-10-16T06:14:47;94.28;;;48.03;;
66353;SDS011;53150;48.296;16.452;2022-10-16T06:17:13;96.05;;;47.60;;
66353;SDS011;53150;48.296;16.452;2022-10-16T06:19:39;93.55;;;47.97;;
66353;SDS011;53150;48.296;16.452;2022-10-16T06:22:06;86.97;;;45.78;;
66353;SDS011;53150;48.296;16.452;2022-10-16T06:24:32;87.57;;;47.53;;
66353;SDS011;53150;48.296;16.452;2022-10-16T06:26:58;95.80;;;47.72;;
66353;SDS011;53150;48.296;16.452;2022-10-16T06:29:24;88.72;;;46.03;;
66353;SDS011;53150;48.296;16.452;2022-10-16T06:31:50;95.78;;;49.95;;
66353;SDS011;53150;48.296;16.452;2022-10-16T06:34:16;92.43;;;50.15;;
66353;SDS011;53150;48.296;16.452;2022-10-16T06:36:42;88.00;;;46.17;;
66353;SDS011;53150;48.296;16.452;2022-10-16T06:39:08;94.88;;;48.28;;
66353;SDS011;53150;48.296;16.452;2022-10-16T06:41:34;94.57;;;49.00;;
66353;SDS011;53150;48.296;16.452;2022-10-16T06:44:01;95.47;;;51.30;;
66353;SDS011;53150;48.296;16.452;2022-10-16T06:46:27;102.07;;;52.65;;
66353;SDS011;53150;48.296;16.452;2022-10-16T06:48:53;100.38;;;48.80;;
66353;SDS011;53150;48.296;16.452;2022-10-16T06:51:20;85.97;;;47.33;;
66353;SDS011;53150;48.296;16.452;2022-10-16T06:53:47;94.13;;;49.33;;
66353;SDS011;53150;48.296;16.452;2022-10-16T06:56:15;96.57;;;50.47;;
66353;SDS011;53150;48.296;16.452;2022-10-16T06:58:41;95.25;;;50.80;;
66353;SDS011;53150;48.296;16.452;2022-10-16T07:01:08;98.10;;;50.97;;
66353;SDS011;53150;48.296;16.452;2022-10-16T07:03:41;88.47;;;47.97;;
66353;SDS011;53150;48.296;16.452;2022-10-16T07:08:38;89.00;;;47.75;;
66353;SDS011;53150;48.296;16.452;2022-10-16T07:11:05;88.28;;;47.90;;
66353;SDS011;53150;48.296;16.452;2022-10-16T07:13:38;88.00;;;49.35;;
66353;SDS011;53150;48.296;16.452;2022-10-16T07:18:31;85.13;;;45.70;;
66353;SDS011;53150;48.296;16.452;2022-10-16T07:21:04;79.78;;;43.92;;
66353;SDS011;53150;48.296;16.452;2022-10-16T07:23:30;78.72;;;44.65;;
66353;SDS011;53150;48.296;16.452;2022-10-16T07:25:56;79.50;;;44.60;;
66353;SDS011;53150;48.296;16.452;2022-10-16T07:28:22;89.60;;;48.00;;
66353;SDS011;53150;48.296;16.452;2022-10-16T07:30:48;78.03;;;45.05;;
66353;SDS011;53150;48.296;16.452;2022-10-16T07:33:14;79.65;;;46.05;;
66353;SDS011;53150;48.296;16.452;2022-10-16T07:35:50;80.45;;;44.78;;
66353;SDS011;53150;48.296;16.452;2022-10-16T07:38:17;90.55;;;47.85;;
66353;SDS011;53150;48.296;16.452;2022-10-16T07:40:43;78.85;;;44.28;;
66353;SDS011;53150;48.296;16.452;2022-10-16T07:43:09;84.85;;;46.03;;
66353;SDS011;53150;48.296;16.452;2022-10-16T07:45:35;83.25;;;46.03;;
66353;SDS011;53150;48.296;16.452;2022-10-16T07:48:01;82.60;;;46.13;;
66353;SDS011;53150;48.296;16.452;2022-10-16T07:50:27;93.15;;;50.10;;
66353;SDS011;53150;48.296;16.452;2022-10-16T07:52:53;89.40;;;47.42;;
66353;SDS011;53150;48.296;16.452;2022-10-16T07:55:19;86.47;;;44.65;;
66353;SDS011;53150;48.296;16.452;2022-10-16T07:57:45;89.82;;;48.00;;
66353;SDS011;53150;48.296;16.452;2022-10-16T08:00:11;81.13;;;45.80;;
66353;SDS011;53150;48.296;16.452;2022-10-16T08:02:41;84.68;;;49.40;;
66353;SDS011;53150;48.296;16.452;2022-10-16T08:05:07;84.22;;;46.58;;
66353;SDS011;53150;48.296;16.452;2022-10-16T08:07:34;84.95;;;48.20;;
66353;SDS011;53150;48.296;16.452;2022-10-16T08:10:00;81.07;;;46.50;;
66353;SDS011;53150;48.296;16.452;2022-10-16T08:12:26;81.70;;;45.90;;
66353;SDS011;53150;48.296;16.452;2022-10-16T08:14:52;88.05;;;47.35;;
66353;SDS011;53150;48.296;16.452;2022-10-16T08:17:18;90.53;;;49.05;;
66353;SDS011;53150;48.296;16.452;2022-10-16T08:19:44;86.90;;;48.55;;
66353;SDS011;53150;48.296;16.452;2022-10-16T08:22:11;80.75;;;46.50;;
66353;SDS011;53150;48.296;16.452;2022-10-16T08:24:37;75.40;;;42.63;;
66353;SDS011;53150;48.296;16.452;2022-10-16T08:27:04;79.65;;;45.63;;
66353;SDS011;53150;48.296;16.452;2022-10-16T08:29:30;77.25;;;44.33;;
66353;SDS011;53150;48.296;16.452;2022-10-16T08:31:56;84.03;;;48.20;;
66353;SDS011;53150;48.296;16.452;2022-10-16T08:34:22;74.35;;;43.47;;
66353;SDS011;53150;48.296;16.452;2022-10-16T08:36:48;69.80;;;42.90;;
66353;SDS011;53150;48.296;16.452;2022-10-16T08:39:15;72.88;;;42.85;;
66353;SDS011;53150;48.296;16.452;2022-10-16T08:49:21;82.38;;;47.10;;
66353;SDS011;53150;48.296;16.452;2022-10-16T08:51:49;82.65;;;49.38;;
66353;SDS011;53150;48.296;16.452;2022-10-16T08:54:29;78.43;;;45.67;;
66353;SDS011;53150;48.296;16.452;2022-10-16T08:57:18;77.18;;;44.03;;
66353;SDS011;53150;48.296;16.452;2022-10-16T08:59:45;74.05;;;44.97;;
66353;SDS011;53150;48.296;16.452;2022-10-16T09:05:00;72.45;;;42.63;;
66353;SDS011;53150;48.296;16.452;2022-10-16T09:17:59;56.10;;;36.03;;
66353;SDS011;53150;48.296;16.452;2022-10-16T09:23:10;54.30;;;34.83;;
66353;SDS011;53150;48.296;16.452;2022-10-16T09:28:04;47.22;;;31.73;;
66353;SDS011;53150;48.296;16.452;2022-10-16T09:30:30;49.85;;;32.90;;
66353;SDS011;53150;48.296;16.452;2022-10-16T09:32:57;48.45;;;31.27;;
66353;SDS011;53150;48.296;16.452;2022-10-16T09:35:42;46.88;;;30.85;;
66353;SDS011;53150;48.296;16.452;2022-10-16T09:38:09;43.10;;;28.35;;
66353;SDS011;53150;48.296;16.452;2022-10-16T09:40:46;42.10;;;29.25;;
66353;SDS011;53150;48.296;16.452;2022-10-16T09:43:16;44.17;;;29.80;;
66353;SDS011;53150;48.296;16.452;2022-10-16T09:48:11;40.95;;;29.20;;
66353;SDS011;53150;48.296;16.452;2022-10-16T09:50:38;42.78;;;29.85;;
66353;SDS011;53150;48.296;16.452;2022-10-16T09:53:13;39.15;;;29.80;;
66353;SDS011;53150;48.296;16.452;2022-10-16T09:55:52;44.10;;;31.25;;
66353;SDS011;53150;48.296;16.452;2022-10-16T10:03:55;39.38;;;28.45;;
66353;SDS011;53150;48.296;16.452;2022-10-16T10:06:43;44.15;;;30.65;;
66353;SDS011;53150;48.296;16.452;2022-10-16T10:12:04;37.63;;;28.23;;
66353;SDS011;53150;48.296;16.452;2022-10-16T10:14:38;39.25;;;27.85;;
66353;SDS011;53150;48.296;16.452;2022-10-16T10:17:24;39.35;;;29.30;;
66353;SDS011;53150;48.296;16.452;2022-10-16T10:22:32;38.35;;;28.73;;
66353;SDS011;53150;48.296;16.452;2022-10-16T10:35:32;40.35;;;30.25;;
66353;SDS011;53150;48.296;16.452;2022-10-16T10:41:00;42.28;;;30.40;;
66353;SDS011;53150;48.296;16.452;2022-10-16T10:46:04;43.65;;;32.85;;
66353;SDS011;53150;48.296;16.452;2022-10-16T10:51:08;46.08;;;32.22;;
66353;SDS011;53150;48.296;16.452;2022-10-16T10:56:14;42.90;;;31.05;;
66353;SDS011;53150;48.296;16.452;2022-10-16T11:02:10;42.72;;;30.73;;
66353;SDS011;53150;48.296;16.452;2022-10-16T11:06:51;42.03;;;30.23;;
66353;SDS011;53150;48.296;16.452;2022-10-16T11:09:40;38.03;;;29.00;;
66353;SDS011;53150;48.296;16.452;2022-10-16T11:14:44;37.47;;;27.45;;
66353;SDS011;53150;48.296;16.452;2022-10-16T11:17:13;35.90;;;28.48;;
66353;SDS011;53150;48.296;16.452;2022-10-16T11:19:48;38.38;;;28.40;;
66353;SDS011;53150;48.296;16.452;2022-10-16T11:22:19;36.70;;;27.83;;
66353;SDS011;53150;48.296;16.452;2022-10-16T11:27:19;37.50;;;29.70;;
66353;SDS011;53150;48.296;16.452;2022-10-16T11:29:53;35.17;;;27.55;;
66353;SDS011;53150;48.296;16.452;2022-10-16T11:32:28;33.63;;;26.95;;
66353;SDS011;53150;48.296;16.452;2022-10-16T11:35:11;35.45;;;27.92;;
66353;SDS011;53150;48.296;16.452;2022-10-16T11:37:42;33.28;;;26.38;;
66353;SDS011;53150;48.296;16.452;2022-10-16T11:43:13;33.85;;;25.73;;
66353;SDS011;53150;48.296;16.452;2022-10-16T11:45:47;33.72;;;26.05;;
66353;SDS011;53150;48.296;16.452;2022-10-16T11:48:18;36.47;;;28.13;;
66353;SDS011;53150;48.296;16.452;2022-10-16T11:50:53;35.60;;;27.42;;
66353;SDS011;53150;48.296;16.452;2022-10-16T11:55:51;31.00;;;25.67;;
66353;SDS011;53150;48.296;16.452;2022-10-16T12:08:27;35.05;;;27.85;;
66353;SDS011;53150;48.296;16.452;2022-10-16T12:10:53;34.75;;;28.98;;
66353;SDS011;53150;48.296;16.452;2022-10-16T12:13:36;33.05;;;26.27;;
66353;SDS011;53150;48.296;16.452;2022-10-16T12:18:41;35.28;;;26.95;;
66353;SDS011;53150;48.296;16.452;2022-10-16T12:21:08;34.00;;;28.38;;
66353;SDS011;53150;48.296;16.452;2022-10-16T12:23:38;34.33;;;27.95;;
66353;SDS011;53150;48.296;16.452;2022-10-16T12:26:04;37.75;;;29.08;;
66353;SDS011;53150;48.296;16.452;2022-10-16T12:28:31;35.03;;;27.55;;
66353;SDS011;53150;48.296;16.452;2022-10-16T12:31:03;34.50;;;26.70;;
66353;SDS011;53150;48.296;16.452;2022-10-16T12:33:33;36.63;;;27.25;;
66353;SDS011;53150;48.296;16.452;2022-10-16T12:36:04;35.28;;;26.08;;
66353;SDS011;53150;48.296;16.452;2022-10-16T12:38:38;36.53;;;27.77;;
66353;SDS011;53150;48.296;16.452;2022-10-16T12:41:11;34.67;;;26.35;;
66353;SDS011;53150;48.296;16.452;2022-10-16T12:43:46;33.47;;;25.23;;
66353;SDS011;53150;48.296;16.452;2022-10-16T12:48:41;33.10;;;25.17;;
66353;SDS011;53150;48.296;16.452;2022-10-16T12:51:19;36.30;;;27.40;;
66353;SDS011;53150;48.296;16.452;2022-10-16T12:53:57;34.65;;;26.02;;
66353;SDS011;53150;48.296;16.452;2022-10-16T12:56:24;36.03;;;27.40;;
66353;SDS011;53150;48.296;16.452;2022-10-16T13:03:55;33.60;;;25.00;;
66353;SDS011;53150;48.296;16.452;2022-10-16T13:09:13;31.15;;;22.92;;
66353;SDS011;53150;48.296;16.452;2022-10-16T14:09:11;30.63;;;23.92;;
66353;SDS011;53150;48.296;16.452;2022-10-16T14:14:05;25.15;;;20.73;;
66353;SDS011;53150;48.296;16.452;2022-10-16T14:16:36;27.85;;;21.92;;
66353;SDS011;53150;48.296;16.452;2022-10-16T14:19:04;28.48;;;22.38;;
66353;SDS011;53150;48.296;16.452;2022-10-16T14:21:31;28.50;;;23.17;;
66353;SDS011;53150;48.296;16.452;2022-10-16T14:23:58;28.10;;;20.58;;
66353;SDS011;53150;48.296;16.452;2022-10-16T14:26:26;28.25;;;20.92;;
66353;SDS011;53150;48.296;16.452;2022-10-16T14:29:10;25.95;;;20.00;;
66353;SDS011;53150;48.296;16.452;2022-10-16T14:31:36;27.33;;;20.65;;
66353;SDS011;53150;48.296;16.452;2022-10-16T14:34:04;25.65;;;19.95;;
66353;SDS011;53150;48.296;16.452;2022-10-16T14:36:31;26.33;;;20.95;;
66353;SDS011;53150;48.296;16.452;2022-10-16T14:39:01;26.55;;;20.70;;
66353;SDS011;53150;48.296;16.452;2022-10-16T14:41:28;23.48;;;19.60;;
66353;SDS011;53150;48.296;16.452;2022-10-16T14:44:00;25.90;;;20.27;;
66353;SDS011;53150;48.296;16.452;2022-10-16T14:46:45;25.38;;;19.80;;
66353;SDS011;53150;48.296;16.452;2022-10-16T14:51:38;26.17;;;20.33;;
66353;SDS011;53150;48.296;16.452;2022-10-16T14:54:07;26.33;;;20.23;;
66353;SDS011;53150;48.296;16.452;2022-10-16T14:56:35;29.02;;;22.58;;
66353;SDS011;53150;48.296;16.452;2022-10-16T14:59:08;26.98;;;21.17;;
66353;SDS011;53150;48.296;16.452;2022-10-16T15:01:38;26.20;;;20.70;;
66353;SDS011;53150;48.296;16.452;2022-10-16T15:04:04;25.45;;;19.75;;
66353;SDS011;53150;48.296;16.452;2022-10-16T15:06:30;28.60;;;21.08;;
66353;SDS011;53150;48.296;16.452;2022-10-16T15:08:56;26.38;;;19.75;;
66353;SDS011;53150;48.296;16.452;2022-10-16T15:11:22;27.52;;;20.38;;
66353;SDS011;53150;48.296;16.452;2022-10-16T15:13:48;24.17;;;20.17;;
66353;SDS011;53150;48.296;16.452;2022-10-16T15:16:15;28.02;;;20.90;;
66353;SDS011;53150;48.296;16.452;2022-10-16T15:18:41;25.70;;;20.75;;
66353;SDS011;53150;48.296;16.452;2022-10-16T15:21:07;30.98;;;21.67;;
66353;SDS011;53150;48.296;16.452;2022-10-16T15:23:33;25.70;;;19.85;;
66353;SDS011;53150;48.296;16.452;2022-10-16T15:26:02;26.27;;;18.95;;
66353;SDS011;53150;48.296;16.452;2022-10-16T15:28:28;27.80;;;20.35;;
66353;SDS011;53150;48.296;16.452;2022-10-16T15:30:55;27.05;;;19.65;;
66353;SDS011;53150;48.296;16.452;2022-10-16T15:33:23;26.27;;;19.30;;
66353;SDS011;53150;48.296;16.452;2022-10-16T15:35:52;24.30;;;18.85;;
66353;SDS011;53150;48.296;16.452;2022-10-16T15:38:18;25.33;;;20.58;;
66353;SDS011;53150;48.296;16.452;2022-10-16T15:40:45;27.00;;;20.58;;
66353;SDS011;53150;48.296;16.452;2022-10-16T15:43:11;27.75;;;20.08;;
66353;SDS011;53150;48.296;16.452;2022-10-16T15:45:38;26.50;;;20.85;;
66353;SDS011;53150;48.296;16.452;2022-10-16T15:48:04;27.35;;;20.40;;
66353;SDS011;53150;48.296;16.452;2022-10-16T15:50:30;26.73;;;19.33;;
66353;SDS011;53150;48.296;16.452;2022-10-16T15:52:57;28.42;;;20.90;;
66353;SDS011;53150;48.296;16.452;2022-10-16T15:55:23;26.00;;;20.05;;
66353;SDS011;53150;48.296;16.452;2022-10-16T15:57:49;27.52;;;20.42;;
66353;SDS011;53150;48.296;16.452;2022-10-16T16:00:16;25.58;;;19.33;;
66353;SDS011;53150;48.296;16.452;2022-10-16T16:02:42;28.88;;;20.58;;
66353;SDS011;53150;48.296;16.452;2022-10-16T16:05:09;26.08;;;19.55;;
66353;SDS011;53150;48.296;16.452;2022-10-16T16:07:36;26.65;;;19.63;;
66353;SDS011;53150;48.296;16.452;2022-10-16T16:10:03;25.08;;;17.95;;
66353;SDS011;53150;48.296;16.452;2022-10-16T16:12:29;26.75;;;20.75;;
66353;SDS011;53150;48.296;16.452;2022-10-16T16:14:55;27.85;;;19.60;;
66353;SDS011;53150;48.296;16.452;2022-10-16T16:17:21;27.02;;;20.38;;
66353;SDS011;53150;48.296;16.452;2022-10-16T16:19:47;27.35;;;21.05;;
66353;SDS011;53150;48.296;16.452;2022-10-16T16:22:13;25.08;;;18.67;;
66353;SDS011;53150;48.296;16.452;2022-10-16T16:24:39;24.98;;;18.73;;
66353;SDS011;53150;48.296;16.452;2022-10-16T16:27:05;23.75;;;17.98;;
66353;SDS011;53150;48.296;16.452;2022-10-16T16:29:31;25.77;;;19.27;;
66353;SDS011;53150;48.296;16.452;2022-10-16T16:31:58;28.02;;;20.60;;
66353;SDS011;53150;48.296;16.452;2022-10-16T16:34:25;29.15;;;21.40;;
66353;SDS011;53150;48.296;16.452;2022-10-16T16:36:51;26.95;;;20.95;;
66353;SDS011;53150;48.296;16.452;2022-10-16T16:39:17;32.67;;;23.15;;
66353;SDS011;53150;48.296;16.452;2022-10-16T16:41:43;28.95;;;20.85;;
66353;SDS011;53150;48.296;16.452;2022-10-16T16:44:11;29.80;;;22.52;;
66353;SDS011;53150;48.296;16.452;2022-10-16T16:46:37;31.15;;;23.08;;
66353;SDS011;53150;48.296;16.452;2022-10-16T16:49:04;31.20;;;24.38;;
66353;SDS011;53150;48.296;16.452;2022-10-16T16:51:31;32.47;;;25.10;;
66353;SDS011;53150;48.296;16.452;2022-10-16T16:53:57;33.90;;;24.20;;
66353;SDS011;53150;48.296;16.452;2022-10-16T16:56:24;30.33;;;23.45;;
66353;SDS011;53150;48.296;16.452;2022-10-16T16:58:51;32.55;;;23.13;;
66353;SDS011;53150;48.296;16.452;2022-10-16T17:01:17;27.42;;;22.10;;
66353;SDS011;53150;48.296;16.452;2022-10-16T17:03:44;30.25;;;23.20;;
66353;SDS011;53150;48.296;16.452;2022-10-16T17:06:11;29.65;;;22.70;;
66353;SDS011;53150;48.296;16.452;2022-10-16T17:08:37;30.58;;;21.30;;
66353;SDS011;53150;48.296;16.452;2022-10-16T17:11:04;32.33;;;23.33;;
66353;SDS011;53150;48.296;16.452;2022-10-16T17:13:31;30.27;;;21.90;;
66353;SDS011;53150;48.296;16.452;2022-10-16T17:16:00;28.75;;;21.67;;
66353;SDS011;53150;48.296;16.452;2022-10-16T17:18:26;28.33;;;21.58;;
66353;SDS011;53150;48.296;16.452;2022-10-16T17:20:52;29.80;;;20.45;;
66353;SDS011;53150;48.296;16.452;2022-10-16T17:23:18;34.58;;;24.67;;
66353;SDS011;53150;48.296;16.452;2022-10-16T17:25:45;34.90;;;24.50;;
66353;SDS011;53150;48.296;16.452;2022-10-16T17:28:12;30.65;;;22.50;;
66353;SDS011;53150;48.296;16.452;2022-10-16T17:30:39;29.33;;;20.50;;
66353;SDS011;53150;48.296;16.452;2022-10-16T17:33:05;29.75;;;20.73;;